Time;durP1;ratioP1;P1;durP2;ratioP2;P2;SDS_P1;SDS_P2;PMS_P1;PMS_P2;Temp;Humidity;BMP_temperature;BMP_pressure;BME280_temperature;BME280_humidity;BME280_pressure;Samples;Min_cycle;Max_cycle;Signal;HPM_P1;HPM_P2
2021/01/19 00:02:04;;;;;;;12.43;5.87;;;;;;;;;;5102014;28;20257;-76
2021/01/19 00:05:10;;;;;;;14.73;5.77;;;;;;;;;;5124872;28;20226;-76
2021/01/19 00:08:14;;;;;;;10.63;4.93;;;;;;;;;;5116110;28;20457;-77
2021/01/19 00:11:20;;;;;;;14.90;5.90;;;;;;;;;;5117041;28;20271;-77
2021/01/19 00:14:25;;;;;;;11.40;5.57;;;;;;;;;;5120458;28;20224;-75
2021/01/19 00:17:30;;;;;;;13.23;5.80;;;;;;;;;;5110003;28;20585;-76
2021/01/19 00:20:35;;;;;;;13.73;5.90;;;;;;;;;;5113729;28;20213;-76
2021/01/19 00:23:40;;;;;;;15.90;7.07;;;;;;;;;;5101327;28;20215;-74
2021/01/19 00:26:46;;;;;;;13.77;6.57;;;;;;;;;;5101798;28;20209;-77
2021/01/19 00:29:50;;;;;;;12.20;6.03;;;;;;;;;;5101831;28;20261;-75
2021/01/19 00:32:54;;;;;;;13.93;6.30;;;;;;;;;;5101675;28;20221;-76
2021/01/19 00:36:00;;;;;;;11.57;5.83;;;;;;;;;;5101212;28;20185;-76
2021/01/19 00:39:05;;;;;;;13.53;5.97;;;;;;;;;;5113476;28;20520;-75
2021/01/19 00:42:11;;;;;;;10.97;5.73;;;;;;;;;;5100887;28;20949;-75
2021/01/19 00:45:16;;;;;;;12.93;6.03;;;;;;;;;;5100847;28;20263;-75
2021/01/19 00:48:20;;;;;;;13.40;5.60;;;;;;;;;;5101143;28;20220;-75
2021/01/19 00:51:25;;;;;;;15.93;5.77;;;;;;;;;;5100563;28;20366;-75
2021/01/19 00:54:30;;;;;;;14.30;5.27;;;;;;;;;;5100408;28;20200;-75
2021/01/19 00:57:36;;;;;;;9.47;5.07;;;;;;;;;;5100472;28;20205;-75
2021/01/19 01:00:41;;;;;;;12.43;5.30;;;;;;;;;;5100417;28;20200;-76
2021/01/19 01:03:45;;;;;;;12.67;5.47;;;;;;;;;;5114141;28;20205;-76
2021/01/19 01:06:53;;;;;;;12.23;5.17;;;;;;;;;;5100939;28;20721;-76
2021/01/19 01:09:57;;;;;;;11.70;5.27;;;;;;;;;;5113174;28;20224;-75
2021/01/19 01:13:03;;;;;;;9.80;5.17;;;;;;;;;;5100417;28;20229;-75
2021/01/19 01:16:08;;;;;;;9.37;4.73;;;;;;;;;;5112845;28;20201;-75
2021/01/19 01:19:12;;;;;;;9.23;4.60;;;;;;;;;;5100221;28;20234;-75
2021/01/19 01:22:17;;;;;;;8.80;4.63;;;;;;;;;;5099667;28;20244;-75
2021/01/19 01:25:22;;;;;;;8.13;4.23;;;;;;;;;;5100364;28;20240;-75
2021/01/19 01:28:29;;;;;;;9.60;4.33;;;;;;;;;;5099903;28;20678;-75
2021/01/19 01:31:33;;;;;;;9.70;4.97;;;;;;;;;;5112340;28;20796;-75
2021/01/19 01:34:38;;;;;;;10.83;4.83;;;;;;;;;;5100104;28;20389;-75
2021/01/19 01:37:46;;;;;;;11.20;5.10;;;;;;;;;;5100085;28;20221;-75
2021/01/19 01:40:51;;;;;;;20.13;7.50;;;;;;;;;;5100545;28;20264;-75
2021/01/19 01:43:57;;;;;;;25.53;8.90;;;;;;;;;;5112669;28;20224;-75
2021/01/19 01:47:01;;;;;;;19.40;8.50;;;;;;;;;;5100050;28;20262;-75
2021/01/19 01:50:07;;;;;;;17.00;6.30;;;;;;;;;;5100717;28;20209;-74
2021/01/19 01:53:11;;;;;;;11.30;5.07;;;;;;;;;;5107390;28;20224;-75
2021/01/19 01:56:16;;;;;;;10.80;4.60;;;;;;;;;;5106975;28;20790;-74
2021/01/19 01:59:21;;;;;;;9.00;4.93;;;;;;;;;;5106309;28;20548;-75
2021/01/19 02:02:27;;;;;;;8.07;4.20;;;;;;;;;;5106273;28;20283;-76
2021/01/19 02:05:31;;;;;;;9.97;4.43;;;;;;;;;;5100094;28;20629;-75
2021/01/19 02:08:43;;;;;;;9.77;4.03;;;;;;;;;;5111902;28;20209;-75
2021/01/19 02:11:49;;;;;;;9.90;3.83;;;;;;;;;;5102745;28;20728;-75
2021/01/19 02:14:59;;;;;;;7.10;3.47;;;;;;;;;;5103927;28;20714;-75
2021/01/19 02:18:09;;;;;;;8.03;3.70;;;;;;;;;;5118977;28;20254;-75
2021/01/19 02:21:30;;;;;;;8.10;3.50;;;;;;;;;;5105576;28;20208;-75
2021/01/19 02:24:36;;;;;;;7.73;3.40;;;;;;;;;;5103449;28;20209;-75
2021/01/19 02:28:09;;;;;;;8.57;3.60;;;;;;;;;;5105914;28;20208;-75
2021/01/19 02:31:23;;;;;;;10.90;3.77;;;;;;;;;;5079883;28;20204;-74
2021/01/19 02:34:31;;;;;;;10.83;4.17;;;;;;;;;;5099094;28;20255;-74
2021/01/19 02:37:38;;;;;;;7.53;3.43;;;;;;;;;;5099147;28;20221;-74
2021/01/19 02:40:44;;;;;;;8.07;3.63;;;;;;;;;;5099413;28;20583;-74
2021/01/19 02:43:58;;;;;;;8.00;3.40;;;;;;;;;;5100547;28;20197;-74
2021/01/19 02:47:05;;;;;;;6.60;3.73;;;;;;;;;;5116102;28;20207;-74
2021/01/19 02:50:10;;;;;;;6.93;3.43;;;;;;;;;;5103140;28;20599;-74
2021/01/19 02:53:17;;;;;;;6.20;3.03;;;;;;;;;;5103229;28;20232;-74
2021/01/19 02:56:25;;;;;;;7.37;2.77;;;;;;;;;;5115137;28;20201;-74
2021/01/19 02:59:35;;;;;;;6.40;2.77;;;;;;;;;;5102639;28;20201;-74
2021/01/19 03:02:41;;;;;;;8.07;3.17;;;;;;;;;;5102639;28;20307;-74
2021/01/19 03:05:47;;;;;;;5.27;2.73;;;;;;;;;;5115917;28;20292;-74
2021/01/19 03:08:52;;;;;;;5.43;2.80;;;;;;;;;;5102515;28;20253;-74
2021/01/19 03:11:57;;;;;;;8.47;2.70;;;;;;;;;;5102380;28;20298;-74
2021/01/19 03:15:02;;;;;;;5.07;2.80;;;;;;;;;;5102469;28;20591;-74
2021/01/19 03:18:07;;;;;;;5.40;2.90;;;;;;;;;;5115167;28;20278;-74
2021/01/19 03:21:13;;;;;;;6.67;2.70;;;;;;;;;;5102632;28;20273;-74
2021/01/19 03:24:17;;;;;;;6.87;2.70;;;;;;;;;;5115048;28;20227;-74
2021/01/19 03:27:21;;;;;;;6.90;3.00;;;;;;;;;;5102159;28;20215;-74
2021/01/19 03:30:26;;;;;;;8.53;3.10;;;;;;;;;;5102350;28;20980;-74
2021/01/19 03:33:31;;;;;;;10.07;3.20;;;;;;;;;;5102686;28;20197;-73
2021/01/19 03:36:36;;;;;;;6.33;3.10;;;;;;;;;;5102480;28;20234;-74
2021/01/19 03:39:41;;;;;;;13.27;4.03;;;;;;;;;;5102130;28;20251;-74
2021/01/19 03:42:46;;;;;;;7.57;3.13;;;;;;;;;;5123894;28;20255;-74
2021/01/19 03:45:50;;;;;;;9.67;3.20;;;;;;;;;;5111311;28;20205;-73
2021/01/19 03:48:55;;;;;;;6.70;3.20;;;;;;;;;;5108533;28;20295;-74
2021/01/19 03:52:00;;;;;;;7.13;3.13;;;;;;;;;;5102321;28;20586;-74
2021/01/19 03:55:05;;;;;;;8.13;3.07;;;;;;;;;;5114126;28;20754;-74
2021/01/19 03:58:10;;;;;;;7.47;3.23;;;;;;;;;;5102693;28;20540;-74
2021/01/19 04:01:15;;;;;;;6.07;3.00;;;;;;;;;;5106444;28;20225;-74
2021/01/19 04:04:19;;;;;;;10.37;3.27;;;;;;;;;;5108145;28;20292;-74
2021/01/19 04:07:26;;;;;;;8.93;3.40;;;;;;;;;;5117783;28;20252;-75
2021/01/19 04:10:31;;;;;;;8.67;3.07;;;;;;;;;;5106976;28;20197;-75
2021/01/19 04:13:36;;;;;;;6.13;2.87;;;;;;;;;;5100954;28;20208;-76
2021/01/19 04:16:41;;;;;;;7.07;3.13;;;;;;;;;;5089051;28;20208;-75
2021/01/19 04:19:46;;;;;;;9.97;3.50;;;;;;;;;;5092135;28;20236;-75
2021/01/19 04:22:51;;;;;;;8.73;2.83;;;;;;;;;;5090187;28;20253;-75
2021/01/19 04:25:56;;;;;;;7.80;2.67;;;;;;;;;;5091722;28;20202;-76
2021/01/19 04:29:00;;;;;;;4.93;2.70;;;;;;;;;;5080840;28;20217;-75
2021/01/19 04:32:05;;;;;;;7.23;3.10;;;;;;;;;;5080833;28;20240;-74
2021/01/19 04:35:10;;;;;;;6.57;3.17;;;;;;;;;;5081062;28;20205;-74
2021/01/19 04:38:18;;;;;;;7.77;3.00;;;;;;;;;;5080703;28;20604;-75
2021/01/19 04:41:23;;;;;;;4.73;2.90;;;;;;;;;;5092149;28;20225;-75
2021/01/19 04:44:27;;;;;;;7.40;3.03;;;;;;;;;;5080573;28;20209;-75
2021/01/19 04:47:33;;;;;;;8.20;3.13;;;;;;;;;;5080681;28;20279;-74
2021/01/19 04:50:38;;;;;;;6.40;3.00;;;;;;;;;;5092290;28;20325;-74
2021/01/19 04:53:45;;;;;;;7.13;3.10;;;;;;;;;;5080379;28;20233;-74
2021/01/19 04:56:51;;;;;;;9.37;3.20;;;;;;;;;;5092901;28;20201;-74
2021/01/19 05:00:00;;;;;;;10.03;3.67;;;;;;;;;;5092460;28;20228;-74
2021/01/19 05:03:18;;;;;;;12.80;3.30;;;;;;;;;;5079984;28;20680;-75
2021/01/19 05:06:52;;;;;;;8.47;3.30;;;;;;;;;;5079890;28;20732;-72
2021/01/19 05:10:18;;;;;;;7.27;3.50;;;;;;;;;;5080147;28;20735;-73
2021/01/19 05:13:42;;;;;;;8.73;3.37;;;;;;;;;;5092724;28;20222;-73
2021/01/19 05:16:46;;;;;;;9.17;3.30;;;;;;;;;;5092537;28;20287;-72
2021/01/19 05:19:52;;;;;;;7.77;3.80;;;;;;;;;;5079755;28;20573;-72
2021/01/19 05:22:57;;;;;;;12.40;3.70;;;;;;;;;;5079908;28;20252;-72
2021/01/19 05:26:04;;;;;;;12.93;3.77;;;;;;;;;;5092519;28;20247;-75
2021/01/19 05:29:09;;;;;;;14.00;3.50;;;;;;;;;;5082075;28;20209;-75
2021/01/19 05:32:15;;;;;;;10.73;3.20;;;;;;;;;;5098389;28;20282;-75
2021/01/19 05:35:20;;;;;;;9.27;3.53;;;;;;;;;;5110241;28;20709;-75
2021/01/19 05:38:25;;;;;;;10.33;4.10;;;;;;;;;;5100792;28;20238;-74
2021/01/19 05:41:31;;;;;;;15.50;4.70;;;;;;;;;;5099715;28;20294;-72
2021/01/19 05:44:37;;;;;;;17.17;4.33;;;;;;;;;;5079470;28;20205;-73
2021/01/19 05:47:41;;;;;;;14.30;5.43;;;;;;;;;;5079672;28;20216;-72
2021/01/19 05:50:49;;;;;;;16.43;5.03;;;;;;;;;;5094373;28;20201;-72
2021/01/19 05:53:55;;;;;;;18.07;5.63;;;;;;;;;;5084821;28;20281;-74
2021/01/19 05:57:07;;;;;;;14.20;4.83;;;;;;;;;;5098879;28;20249;-74
2021/01/19 06:00:19;;;;;;;30.60;4.93;;;;;;;;;;5099142;28;20251;-75
2021/01/19 06:03:23;;;;;;;18.43;4.90;;;;;;;;;;5079222;28;20308;-74
2021/01/19 06:06:29;;;;;;;12.90;4.50;;;;;;;;;;5094486;28;20217;-73
2021/01/19 06:09:34;;;;;;;18.30;5.10;;;;;;;;;;5098826;28;20220;-74
2021/01/19 06:12:39;;;;;;;11.33;4.50;;;;;;;;;;5099389;28;20274;-73
2021/01/19 06:15:44;;;;;;;10.97;4.87;;;;;;;;;;5099091;28;20309;-74
2021/01/19 06:18:49;;;;;;;8.93;4.60;;;;;;;;;;5100898;28;20185;-74
2021/01/19 06:21:53;;;;;;;11.27;4.70;;;;;;;;;;5103540;28;20240;-74
2021/01/19 06:24:58;;;;;;;11.87;4.43;;;;;;;;;;5104065;28;20204;-74
2021/01/19 06:28:09;;;;;;;24.70;5.50;;;;;;;;;;5103854;28;20279;-74
2021/01/19 06:31:15;;;;;;;14.10;4.77;;;;;;;;;;5103473;28;20269;-74
2021/01/19 06:34:30;;;;;;;18.13;5.90;;;;;;;;;;5103365;28;20672;-74
2021/01/19 06:37:35;;;;;;;29.43;8.50;;;;;;;;;;5103567;28;20294;-74
2021/01/19 06:40:43;;;;;;;14.60;6.03;;;;;;;;;;5116145;28;20584;-74
2021/01/19 06:43:54;;;;;;;15.70;6.40;;;;;;;;;;5103448;28;20216;-73
2021/01/19 06:47:00;;;;;;;12.00;5.80;;;;;;;;;;5106241;28;20223;-74
2021/01/19 06:50:07;;;;;;;18.33;6.87;;;;;;;;;;5116372;28;20227;-73
2021/01/19 06:53:14;;;;;;;19.13;6.20;;;;;;;;;;5115504;28;20266;-73
2021/01/19 06:56:23;;;;;;;12.43;4.53;;;;;;;;;;5115010;28;20311;-74
2021/01/19 06:59:33;;;;;;;18.63;5.50;;;;;;;;;;5103281;28;20262;-75
2021/01/19 07:02:39;;;;;;;15.60;5.40;;;;;;;;;;5115575;28;20275;-74
2021/01/19 07:05:49;;;;;;;16.00;5.77;;;;;;;;;;5103132;28;20251;-74
2021/01/19 07:09:36;;;;;;;16.83;6.20;;;;;;;;;;5103051;28;20212;-74
2021/01/19 07:13:00;;;;;;;14.83;6.00;;;;;;;;;;5115280;28;21114;-74
2021/01/19 07:16:06;;;;;;;15.67;5.73;;;;;;;;;;5102755;28;20576;-74
2021/01/19 07:19:18;;;;;;;16.03;6.37;;;;;;;;;;5095325;28;20627;-74
2021/01/19 07:22:47;;;;;;;14.33;5.93;;;;;;;;;;5090265;28;20765;-74
2021/01/19 07:25:51;;;;;;;22.73;9.93;;;;;;;;;;5097031;28;20244;-74
2021/01/19 07:28:56;;;;;;;20.27;5.77;;;;;;;;;;5102903;28;20672;-74
2021/01/19 07:32:07;;;;;;;16.93;5.53;;;;;;;;;;5098402;28;20275;-74
2021/01/19 07:35:14;;;;;;;15.70;5.97;;;;;;;;;;5099405;28;20255;-73
2021/01/19 07:38:22;;;;;;;15.27;5.73;;;;;;;;;;5102634;28;20192;-75
2021/01/19 07:41:28;;;;;;;26.23;9.20;;;;;;;;;;5101934;28;20216;-74
2021/01/19 07:44:33;;;;;;;12.40;5.17;;;;;;;;;;5099915;28;20293;-75
2021/01/19 07:47:39;;;;;;;15.40;6.63;;;;;;;;;;5106773;28;20275;-75
2021/01/19 07:50:45;;;;;;;26.27;8.87;;;;;;;;;;5090717;28;20351;-75
2021/01/19 07:53:50;;;;;;;68.50;21.27;;;;;;;;;;5091891;28;20626;-75
2021/01/19 07:56:55;;;;;;;27.70;10.00;;;;;;;;;;5094815;28;20264;-75
2021/01/19 08:00:05;;;;;;;19.90;7.43;;;;;;;;;;5099769;28;20216;-75
2021/01/19 08:03:16;;;;;;;15.07;6.63;;;;;;;;;;5103154;28;20283;-75
2021/01/19 08:06:31;;;;;;;15.67;6.33;;;;;;;;;;5100349;28;20293;-75
2021/01/19 08:09:36;;;;;;;14.50;6.27;;;;;;;;;;5089954;28;20202;-75
2021/01/19 08:12:41;;;;;;;14.63;6.50;;;;;;;;;;5094401;28;20230;-75
2021/01/19 08:15:48;;;;;;;12.83;6.33;;;;;;;;;;5081565;28;20210;-75
2021/01/19 08:19:06;;;;;;;14.50;6.90;;;;;;;;;;5082213;28;20214;-75
2021/01/19 08:22:12;;;;;;;18.63;7.37;;;;;;;;;;5082712;28;20724;-75
2021/01/19 08:25:22;;;;;;;19.53;8.90;;;;;;;;;;5083317;28;20677;-76
2021/01/19 08:28:28;;;;;;;18.93;7.73;;;;;;;;;;5092335;28;20263;-74
2021/01/19 08:31:33;;;;;;;15.83;7.40;;;;;;;;;;5082880;28;20225;-74
2021/01/19 08:34:39;;;;;;;23.10;8.60;;;;;;;;;;5083766;28;20628;-73
2021/01/19 08:37:48;;;;;;;14.17;6.90;;;;;;;;;;5081420;28;20205;-74
2021/01/19 08:40:53;;;;;;;19.07;7.43;;;;;;;;;;5081593;28;20205;-73
2021/01/19 08:43:58;;;;;;;29.10;8.50;;;;;;;;;;5081129;28;20735;-74
2021/01/19 08:47:03;;;;;;;22.17;8.13;;;;;;;;;;5088216;28;20221;-75
2021/01/19 08:50:15;;;;;;;23.90;8.83;;;;;;;;;;5084420;28;20202;-76
2021/01/19 08:53:21;;;;;;;16.70;7.67;;;;;;;;;;5081583;28;20225;-76
2021/01/19 08:56:28;;;;;;;22.63;8.90;;;;;;;;;;5081018;28;20231;-75
2021/01/19 08:59:33;;;;;;;20.07;7.90;;;;;;;;;;5081607;28;20213;-75
2021/01/19 09:02:42;;;;;;;20.63;8.20;;;;;;;;;;5081096;28;20511;-75
2021/01/19 09:05:46;;;;;;;29.70;11.17;;;;;;;;;;5080468;28;20239;-76
2021/01/19 09:08:59;;;;;;;32.80;12.63;;;;;;;;;;5092424;28;20201;-76
2021/01/19 09:12:05;;;;;;;22.67;10.23;;;;;;;;;;5095439;28;20221;-75
2021/01/19 09:15:14;;;;;;;19.33;8.00;;;;;;;;;;5081854;28;20201;-75
2021/01/19 09:18:19;;;;;;;18.70;8.67;;;;;;;;;;5082259;28;20205;-75
2021/01/19 09:21:24;;;;;;;19.93;8.40;;;;;;;;;;5082919;28;20233;-76
2021/01/19 09:24:37;;;;;;;20.57;8.47;;;;;;;;;;5084541;28;20205;-75
2021/01/19 09:27:42;;;;;;;24.53;8.57;;;;;;;;;;5094031;28;20212;-75
2021/01/19 09:30:47;;;;;;;19.20;8.63;;;;;;;;;;5080218;28;20317;-76
2021/01/19 09:33:54;;;;;;;19.63;8.20;;;;;;;;;;5087307;28;20692;-75
2021/01/19 09:36:59;;;;;;;20.23;7.67;;;;;;;;;;5092027;28;20223;-75
2021/01/19 09:40:05;;;;;;;17.17;7.17;;;;;;;;;;5092554;28;20403;-75
2021/01/19 09:43:13;;;;;;;16.10;8.30;;;;;;;;;;5115242;28;20228;-76
2021/01/19 09:46:22;;;;;;;16.23;7.43;;;;;;;;;;5103115;28;20256;-76
2021/01/19 09:49:27;;;;;;;26.80;8.70;;;;;;;;;;5096394;28;20201;-76
2021/01/19 09:52:32;;;;;;;19.63;7.40;;;;;;;;;;5098797;28;21057;-76
2021/01/19 09:55:38;;;;;;;17.73;7.73;;;;;;;;;;5092761;28;20201;-77
2021/01/19 09:58:43;;;;;;;19.47;7.60;;;;;;;;;;5090259;28;20210;-77
2021/01/19 10:01:51;;;;;;;16.30;7.20;;;;;;;;;;5096936;28;20264;-77
2021/01/19 10:04:59;;;;;;;15.87;7.40;;;;;;;;;;5096842;28;20566;-75
2021/01/19 10:08:05;;;;;;;17.40;7.30;;;;;;;;;;5090753;28;20193;-76
2021/01/19 10:11:10;;;;;;;16.67;7.10;;;;;;;;;;5093386;28;20570;-76
2021/01/19 10:14:17;;;;;;;17.00;6.80;;;;;;;;;;5087447;28;20212;-75
2021/01/19 10:17:28;;;;;;;14.47;6.53;;;;;;;;;;5080287;28;21142;-76
2021/01/19 10:20:34;;;;;;;15.67;6.93;;;;;;;;;;5090368;28;20800;-75
2021/01/19 10:23:38;;;;;;;22.53;9.10;;;;;;;;;;5099447;28;20502;-76
2021/01/19 10:26:55;;;;;;;15.70;7.53;;;;;;;;;;5099037;28;20266;-76
2021/01/19 10:30:00;;;;;;;19.40;8.10;;;;;;;;;;5089821;28;20267;-76
2021/01/19 10:33:05;;;;;;;27.50;11.73;;;;;;;;;;5084765;28;20270;-74
2021/01/19 10:36:10;;;;;;;19.37;8.60;;;;;;;;;;5098927;28;20251;-74
2021/01/19 10:39:15;;;;;;;21.07;7.67;;;;;;;;;;5100381;28;20198;-75
2021/01/19 10:42:29;;;;;;;16.93;7.17;;;;;;;;;;5086529;28;20229;-74
2021/01/19 10:45:34;;;;;;;20.17;7.87;;;;;;;;;;5082435;28;21087;-75
2021/01/19 10:48:39;;;;;;;18.77;7.87;;;;;;;;;;5088726;28;20210;-74
2021/01/19 10:51:46;;;;;;;18.30;7.57;;;;;;;;;;5081202;28;20233;-74
2021/01/19 10:54:53;;;;;;;16.87;7.60;;;;;;;;;;5085760;28;20255;-75
2021/01/19 10:57:59;;;;;;;15.80;7.40;;;;;;;;;;5085055;28;20564;-74
2021/01/19 11:01:03;;;;;;;24.63;7.67;;;;;;;;;;5082059;28;20213;-74
2021/01/19 11:04:08;;;;;;;21.60;7.63;;;;;;;;;;5093968;28;20259;-75
2021/01/19 11:07:12;;;;;;;20.80;7.13;;;;;;;;;;5095111;28;20323;-73
2021/01/19 11:10:18;;;;;;;21.47;8.03;;;;;;;;;;5102347;28;20314;-73
2021/01/19 11:13:23;;;;;;;17.17;6.87;;;;;;;;;;5095220;28;20308;-72
2021/01/19 11:16:28;;;;;;;14.97;7.13;;;;;;;;;;5093349;28;20283;-72
2021/01/19 11:19:33;;;;;;;19.97;7.27;;;;;;;;;;5091764;28;20223;-72
2021/01/19 11:22:38;;;;;;;20.47;7.13;;;;;;;;;;5091623;28;20305;-73
2021/01/19 11:25:43;;;;;;;17.70;7.57;;;;;;;;;;5089297;28;20677;-74
2021/01/19 11:28:50;;;;;;;17.60;7.80;;;;;;;;;;5090905;28;20225;-73
2021/01/19 11:31:55;;;;;;;17.83;7.03;;;;;;;;;;5088345;28;20642;-73
2021/01/19 11:35:02;;;;;;;17.17;6.97;;;;;;;;;;5091607;28;20205;-72
2021/01/19 11:38:06;;;;;;;15.23;6.70;;;;;;;;;;5096929;28;20693;-73
2021/01/19 11:41:15;;;;;;;11.27;6.13;;;;;;;;;;5091567;28;20224;-75
2021/01/19 11:44:22;;;;;;;17.97;6.77;;;;;;;;;;5095450;28;20240;-74
2021/01/19 11:47:27;;;;;;;15.07;6.70;;;;;;;;;;5095697;28;20753;-74
2021/01/19 11:50:32;;;;;;;21.90;8.17;;;;;;;;;;5097772;27;20549;-73
2021/01/19 11:53:36;;;;;;;20.10;8.10;;;;;;;;;;5111830;27;20216;-73
2021/01/19 11:56:42;;;;;;;15.43;6.67;;;;;;;;;;5097262;28;20278;-74
2021/01/19 11:59:47;;;;;;;15.70;6.90;;;;;;;;;;5093490;28;20193;-73
2021/01/19 12:02:52;;;;;;;13.00;6.17;;;;;;;;;;5095360;28;20221;-74
2021/01/19 12:05:56;;;;;;;14.90;6.50;;;;;;;;;;5094387;28;20206;-73
2021/01/19 12:09:01;;;;;;;17.37;7.03;;;;;;;;;;5087511;28;20215;-75
2021/01/19 12:12:06;;;;;;;18.77;6.93;;;;;;;;;;5101508;28;20236;-73
2021/01/19 12:15:13;;;;;;;14.83;6.40;;;;;;;;;;5102056;28;20236;-73
2021/01/19 12:18:17;;;;;;;14.13;6.17;;;;;;;;;;5100703;28;20212;-73
2021/01/19 12:21:22;;;;;;;14.73;5.87;;;;;;;;;;5101154;28;20221;-73
2021/01/19 12:24:27;;;;;;;15.03;6.07;;;;;;;;;;5101017;28;20642;-72
2021/01/19 12:27:31;;;;;;;17.83;6.77;;;;;;;;;;5100917;28;20229;-73
2021/01/19 12:30:37;;;;;;;16.77;7.67;;;;;;;;;;5100968;28;20208;-73
2021/01/19 12:33:42;;;;;;;11.50;6.27;;;;;;;;;;5101320;28;20577;-73
2021/01/19 12:36:47;;;;;;;15.57;6.83;;;;;;;;;;5112905;28;20302;-73
2021/01/19 12:39:52;;;;;;;15.03;7.10;;;;;;;;;;5120241;28;20277;-73
2021/01/19 12:42:57;;;;;;;16.63;7.23;;;;;;;;;;5104036;28;20622;-73
2021/01/19 12:46:03;;;;;;;19.23;7.13;;;;;;;;;;5104283;28;20274;-74
2021/01/19 12:49:07;;;;;;;22.60;6.93;;;;;;;;;;5100635;28;20762;-73
2021/01/19 12:52:12;;;;;;;17.57;7.10;;;;;;;;;;5115102;28;20682;-73
2021/01/19 12:55:17;;;;;;;14.60;7.27;;;;;;;;;;5114448;28;20208;-72
2021/01/19 12:58:21;;;;;;;14.90;7.50;;;;;;;;;;5102104;28;20639;-73
2021/01/19 13:01:27;;;;;;;13.50;6.47;;;;;;;;;;5103272;28;20224;-73
2021/01/19 13:04:31;;;;;;;17.13;7.60;;;;;;;;;;5101415;28;20567;-72
2021/01/19 13:07:36;;;;;;;19.20;7.53;;;;;;;;;;5102096;28;20320;-74
2021/01/19 13:10:41;;;;;;;14.27;6.73;;;;;;;;;;5114809;28;20246;-74
2021/01/19 13:13:46;;;;;;;12.83;6.23;;;;;;;;;;5101534;28;20212;-73
2021/01/19 13:16:52;;;;;;;16.70;7.33;;;;;;;;;;5100322;28;20689;-72
2021/01/19 13:19:56;;;;;;;15.80;6.57;;;;;;;;;;5100563;28;20774;-73
2021/01/19 13:23:01;;;;;;;15.37;7.00;;;;;;;;;;5100946;28;20712;-73
2021/01/19 13:26:06;;;;;;;14.63;6.97;;;;;;;;;;5102033;28;20216;-73
2021/01/19 13:29:10;;;;;;;21.97;7.37;;;;;;;;;;5101464;28;20340;-73
2021/01/19 13:32:17;;;;;;;15.10;6.97;;;;;;;;;;5101897;28;20233;-75
2021/01/19 13:35:22;;;;;;;16.53;7.70;;;;;;;;;;5102917;28;20219;-75
2021/01/19 13:38:26;;;;;;;15.57;6.30;;;;;;;;;;5102224;28;20266;-74
2021/01/19 13:41:31;;;;;;;22.37;8.00;;;;;;;;;;5114809;28;20228;-74
2021/01/19 13:44:37;;;;;;;16.43;7.57;;;;;;;;;;5102784;28;20311;-73
2021/01/19 13:47:43;;;;;;;15.10;7.37;;;;;;;;;;5099136;28;20222;-73
2021/01/19 13:50:48;;;;;;;16.57;7.30;;;;;;;;;;5088823;28;20213;-73
2021/01/19 13:53:54;;;;;;;18.13;7.43;;;;;;;;;;5101004;28;20606;-75
2021/01/19 13:56:59;;;;;;;18.07;7.50;;;;;;;;;;5089029;28;20335;-74
2021/01/19 14:00:04;;;;;;;17.97;7.60;;;;;;;;;;5079534;28;20358;-74
2021/01/19 14:03:12;;;;;;;23.63;8.90;;;;;;;;;;5103123;27;20220;-75
2021/01/19 14:06:17;;;;;;;20.17;8.40;;;;;;;;;;5094789;28;20201;-73
2021/01/19 14:09:21;;;;;;;22.47;8.37;;;;;;;;;;5081435;28;20293;-72
2021/01/19 14:12:26;;;;;;;20.67;7.70;;;;;;;;;;5095594;28;20588;-76
2021/01/19 14:15:30;;;;;;;16.43;7.27;;;;;;;;;;5122218;28;20556;-73
2021/01/19 14:18:36;;;;;;;25.13;7.77;;;;;;;;;;5122122;28;20228;-72
2021/01/19 14:21:41;;;;;;;23.23;7.73;;;;;;;;;;5122326;27;20257;-75
2021/01/19 14:24:45;;;;;;;44.83;9.00;;;;;;;;;;5106082;28;20927;-73
2021/01/19 14:27:50;;;;;;;15.07;7.33;;;;;;;;;;5101239;28;20237;-74
2021/01/19 14:30:55;;;;;;;21.43;7.70;;;;;;;;;;5113295;28;20209;-74
2021/01/19 14:34:01;;;;;;;33.63;8.43;;;;;;;;;;5112848;28;20200;-73
2021/01/19 14:37:06;;;;;;;17.03;6.90;;;;;;;;;;5092197;28;20192;-73
2021/01/19 14:40:11;;;;;;;23.63;8.60;;;;;;;;;;5090804;28;20252;-75
2021/01/19 14:43:16;;;;;;;24.07;8.90;;;;;;;;;;5086761;28;20263;-73
2021/01/19 14:46:21;;;;;;;25.00;9.60;;;;;;;;;;5091072;28;20232;-74
2021/01/19 14:49:27;;;;;;;23.57;9.17;;;;;;;;;;5091612;28;20205;-73
2021/01/19 14:52:31;;;;;;;28.63;9.77;;;;;;;;;;5099595;28;20256;-73
2021/01/19 14:55:37;;;;;;;28.77;10.73;;;;;;;;;;5082813;28;20697;-72
2021/01/19 14:58:41;;;;;;;27.63;11.13;;;;;;;;;;5087561;28;20292;-72
2021/01/19 15:01:48;;;;;;;30.10;10.63;;;;;;;;;;5102111;28;20313;-72
2021/01/19 15:04:55;;;;;;;54.27;12.33;;;;;;;;;;5092101;28;20234;-72
2021/01/19 15:08:00;;;;;;;28.43;10.97;;;;;;;;;;5094086;28;20260;-74
2021/01/19 15:11:11;;;;;;;52.93;11.70;;;;;;;;;;5082287;28;20212;-73
2021/01/19 15:14:16;;;;;;;39.53;11.17;;;;;;;;;;5089662;28;20298;-72
2021/01/19 15:17:21;;;;;;;29.83;9.50;;;;;;;;;;5102450;28;20215;-73
2021/01/19 15:20:26;;;;;;;35.20;9.90;;;;;;;;;;5094626;28;20731;-72
2021/01/19 15:23:31;;;;;;;33.50;9.00;;;;;;;;;;5099733;28;20216;-72
2021/01/19 15:26:35;;;;;;;28.23;9.13;;;;;;;;;;5092264;28;20204;-75
2021/01/19 15:29:41;;;;;;;22.20;8.50;;;;;;;;;;5087257;28;20240;-75
2021/01/19 15:32:46;;;;;;;41.13;9.17;;;;;;;;;;5096632;28;20263;-74
2021/01/19 15:35:53;;;;;;;25.07;7.70;;;;;;;;;;5117791;27;20244;-75
2021/01/19 15:38:57;;;;;;;41.83;9.00;;;;;;;;;;5104119;28;20331;-73
2021/01/19 15:42:03;;;;;;;42.67;9.23;;;;;;;;;;5102789;28;20294;-73
2021/01/19 15:45:08;;;;;;;50.57;9.80;;;;;;;;;;5134752;27;20632;-73
2021/01/19 15:48:14;;;;;;;26.80;9.90;;;;;;;;;;5127056;27;20258;-72
2021/01/19 15:51:19;;;;;;;47.57;12.80;;;;;;;;;;5131470;27;20208;-73
2021/01/19 15:54:24;;;;;;;34.43;12.97;;;;;;;;;;5102495;28;20234;-71
2021/01/19 15:57:29;;;;;;;28.77;13.20;;;;;;;;;;5116510;28;20588;-73
2021/01/19 16:00:34;;;;;;;19.10;9.17;;;;;;;;;;5126172;27;20217;-72
2021/01/19 16:03:39;;;;;;;23.00;10.70;;;;;;;;;;5116168;28;20236;-73
2021/01/19 16:06:44;;;;;;;22.67;10.40;;;;;;;;;;5101337;28;20601;-75
2021/01/19 16:09:50;;;;;;;21.57;9.73;;;;;;;;;;5100224;28;20798;-75
2021/01/19 16:12:54;;;;;;;22.27;9.90;;;;;;;;;;5085384;28;20328;-75
2021/01/19 16:15:59;;;;;;;23.17;10.50;;;;;;;;;;5097102;28;20640;-75
2021/01/19 16:19:05;;;;;;;29.63;11.23;;;;;;;;;;5097106;28;20222;-73
2021/01/19 16:22:11;;;;;;;23.77;11.43;;;;;;;;;;5096585;28;20770;-73
2021/01/19 16:25:15;;;;;;;22.70;10.73;;;;;;;;;;5095820;28;20213;-73
2021/01/19 16:28:20;;;;;;;26.30;12.07;;;;;;;;;;5093252;28;20197;-73
2021/01/19 16:31:26;;;;;;;23.60;10.77;;;;;;;;;;5089222;28;20224;-76
2021/01/19 16:34:31;;;;;;;22.70;11.23;;;;;;;;;;5082029;28;20202;-75
2021/01/19 16:37:37;;;;;;;20.17;10.27;;;;;;;;;;5089294;28;20282;-74
2021/01/19 16:40:42;;;;;;;23.13;11.17;;;;;;;;;;5120144;27;20192;-73
2021/01/19 16:43:47;;;;;;;21.80;10.60;;;;;;;;;;5108830;27;20229;-75
2021/01/19 16:46:52;;;;;;;23.83;11.60;;;;;;;;;;5101033;28;20216;-73
2021/01/19 16:49:57;;;;;;;25.50;10.53;;;;;;;;;;5100795;28;20208;-75
2021/01/19 16:53:02;;;;;;;24.17;12.10;;;;;;;;;;5100247;28;20825;-74
2021/01/19 16:56:08;;;;;;;26.07;11.83;;;;;;;;;;5096112;28;20209;-74
2021/01/19 16:59:13;;;;;;;25.20;11.67;;;;;;;;;;5080195;28;20204;-73
2021/01/19 17:02:18;;;;;;;31.43;13.30;;;;;;;;;;5079514;28;20264;-73
2021/01/19 17:05:22;;;;;;;29.33;14.43;;;;;;;;;;5107247;27;20695;-75
2021/01/19 17:08:28;;;;;;;31.60;14.33;;;;;;;;;;5111192;28;20271;-75
2021/01/19 17:11:32;;;;;;;29.93;14.07;;;;;;;;;;5100768;28;20232;-73
2021/01/19 17:14:37;;;;;;;31.67;14.60;;;;;;;;;;5089401;28;20220;-73
2021/01/19 17:17:41;;;;;;;27.80;13.57;;;;;;;;;;5099692;28;20212;-76
2021/01/19 17:20:49;;;;;;;27.17;13.47;;;;;;;;;;5100182;28;20262;-74
2021/01/19 17:23:55;;;;;;;33.63;16.93;;;;;;;;;;5088819;27;20274;-71
2021/01/19 17:27:00;;;;;;;42.30;20.00;;;;;;;;;;5088341;28;20597;-73
2021/01/19 17:30:10;;;;;;;43.70;18.70;;;;;;;;;;5091519;28;20212;-74
2021/01/19 17:33:14;;;;;;;39.20;19.20;;;;;;;;;;5081591;28;20233;-71
2021/01/19 17:36:21;;;;;;;37.33;18.07;;;;;;;;;;5084559;28;20209;-72
2021/01/19 17:39:26;;;;;;;39.97;18.33;;;;;;;;;;5095042;28;20243;-73
2021/01/19 17:42:31;;;;;;;36.20;18.33;;;;;;;;;;5087885;28;20628;-74
2021/01/19 17:45:35;;;;;;;34.03;16.60;;;;;;;;;;5088589;28;20220;-72
2021/01/19 17:48:40;;;;;;;33.83;16.47;;;;;;;;;;5101037;28;20255;-73
2021/01/19 17:51:45;;;;;;;39.40;17.63;;;;;;;;;;5098176;28;20732;-72
2021/01/19 17:54:50;;;;;;;37.80;17.70;;;;;;;;;;5087504;28;20205;-72
2021/01/19 17:57:54;;;;;;;37.83;17.37;;;;;;;;;;5083624;28;20562;-73
2021/01/19 18:00:59;;;;;;;32.83;16.27;;;;;;;;;;5092014;28;20271;-72
2021/01/19 18:04:09;;;;;;;34.33;16.30;;;;;;;;;;5099723;28;20232;-74
2021/01/19 18:07:13;;;;;;;29.77;15.07;;;;;;;;;;5095990;28;20248;-74
2021/01/19 18:10:20;;;;;;;34.07;16.77;;;;;;;;;;5094609;28;20257;-73
2021/01/19 18:13:25;;;;;;;33.40;16.03;;;;;;;;;;5094735;28;20342;-74
2021/01/19 18:16:30;;;;;;;48.03;21.40;;;;;;;;;;5091891;28;20220;-73
2021/01/19 18:19:35;;;;;;;37.30;17.20;;;;;;;;;;5110687;28;20212;-76
2021/01/19 18:22:40;;;;;;;39.17;17.50;;;;;;;;;;5094766;28;20574;-75